Map

Track Data

SID SEASON NUMBER BASIN SUBBASIN NAME ISO_TIME NATURE LAT LON WMO_WIND WMO_PRES WMO_AGENCY TRACK_TYPE DIST2LAND LANDFALL IFLAG USA_AGENCY USA_ATCF_ID USA_LAT USA_LON USA_RECORD USA_STATUS USA_WIND USA_PRES USA_SSHS USA_R34_NE USA_R34_SE USA_R34_SW USA_R34_NW USA_R50_NE USA_R50_SE USA_R50_SW USA_R50_NW USA_R64_NE USA_R64_SE USA_R64_SW USA_R64_NW USA_POCI USA_ROCI USA_RMW USA_EYE TOKYO_LAT TOKYO_LON TOKYO_GRADE TOKYO_WIND TOKYO_PRES TOKYO_R50_DIR TOKYO_R50_LONG TOKYO_R50_SHORT TOKYO_R30_DIR TOKYO_R30_LONG TOKYO_R30_SHORT TOKYO_LAND CMA_LAT CMA_LON CMA_CAT CMA_WIND CMA_PRES HKO_LAT HKO_LON HKO_CAT HKO_WIND HKO_PRES NEWDELHI_LAT NEWDELHI_LON NEWDELHI_GRADE NEWDELHI_WIND NEWDELHI_PRES NEWDELHI_CI NEWDELHI_DP NEWDELHI_POCI REUNION_LAT REUNION_LON REUNION_TYPE REUNION_WIND REUNION_PRES REUNION_TNUM REUNION_CI REUNION_RMW REUNION_R34_NE REUNION_R34_SE REUNION_R34_SW REUNION_R34_NW REUNION_R50_NE REUNION_R50_SE REUNION_R50_SW REUNION_R50_NW REUNION_R64_NE REUNION_R64_SE REUNION_R64_SW REUNION_R64_NW BOM_LAT BOM_LON BOM_TYPE BOM_WIND BOM_PRES BOM_TNUM BOM_CI BOM_RMW BOM_R34_NE BOM_R34_SE BOM_R34_SW BOM_R34_NW BOM_R50_NE BOM_R50_SE BOM_R50_SW BOM_R50_NW BOM_R64_NE BOM_R64_SE BOM_R64_SW BOM_R64_NW BOM_ROCI BOM_POCI BOM_EYE BOM_POS_METHOD BOM_PRES_METHOD NADI_LAT NADI_LON NADI_CAT NADI_WIND NADI_PRES WELLINGTON_LAT WELLINGTON_LON WELLINGTON_WIND WELLINGTON_PRES DS824_LAT DS824_LON DS824_STAGE DS824_WIND DS824_PRES TD9636_LAT TD9636_LON TD9636_STAGE TD9636_WIND TD9636_PRES TD9635_LAT TD9635_LON TD9635_WIND TD9635_PRES TD9635_ROCI NEUMANN_LAT NEUMANN_LON NEUMANN_CLASS NEUMANN_WIND NEUMANN_PRES MLC_LAT MLC_LON MLC_CLASS MLC_WIND MLC_PRES USA_GUST BOM_GUST BOM_GUST_PER REUNION_GUST REUNION_GUST_PER USA_SEAHGT USA_SEARAD_NE USA_SEARAD_SE USA_SEARAD_SW USA_SEARAD_NW STORM_SPEED STORM_DIR
1946261N11161 1946 56 WP MM QUERIDA 1946-09-18 00:00:00 TS 10.5000 160.800 main 1828 1804 O________OOO__ jtwc_wp WP121946 10.5000 160.800 50 0 10.5000 160.800 TC 50 10.5000 160.800 2 50 10.5000 160.800 50 995 240 9 276
1946261N11161 1946 56 WP MM QUERIDA 1946-09-18 03:00:00 TS 10.5474 160.338 main 1799 1785 P________PPP__ WP121946 10.5302 160.335 52 0 10.5302 160.335 TC 52 10.5992 160.349 2 51 10.5302 160.335 52 994 240 9 278
1946261N11161 1946 56 WP MM QUERIDA 1946-09-18 06:00:00 TS 10.6246 159.904 main 1785 1772 O________OPO__ jtwc_wp WP121946 10.6000 159.900 55 0 10.6000 159.900 TC 55 10.6984 159.918 2 52 10.6000 159.900 55 993 240 8 284
1946261N11161 1946 56 WP MM QUERIDA 1946-09-18 09:00:00 TS 10.7508 159.522 main 1782 1771 P________PPP__ WP121946 10.7350 159.520 55 0 10.7350 159.520 TC 55 10.7984 159.528 2 53 10.7350 159.520 55 991 270 7 292
1946261N11161 1946 56 WP MM QUERIDA 1946-09-18 12:00:00 TS 10.9000 159.200 main 1775 1770 O________OOO__ jtwc_wp WP121946 10.9000 159.200 55 0 10.9000 159.200 TC 55 10.9000 159.200 2 55 10.9000 159.200 55 990 300 6 297
1946261N11161 1946 56 WP MM QUERIDA 1946-09-18 15:00:00 TS 11.0443 158.937 main 1769 1769 P________PPP__ WP121946 11.0574 158.935 55 0 11.0574 158.935 TC 55 11.0051 158.943 2 57 11.0574 158.935 55 988 300 6 300
1946261N11161 1946 56 WP MM QUERIDA 1946-09-18 18:00:00 TS 11.1798 158.705 main 1779 1769 O________OPO__ jtwc_wp WP121946 11.2000 158.700 55 0 11.2000 158.700 TC 55 11.1192 158.722 2 60 11.2000 158.700 55 986 300 5 296
1946261N11161 1946 56 WP MM QUERIDA 1946-09-18 21:00:00 TS 11.2703 158.471 main 1779 1769 P________PPP__ WP121946 11.2774 158.465 60 0 11.2774 158.465 TC 60 11.2488 158.490 2 62 11.2774 158.465 60 984 330 5 294
1946261N11161 1946 56 WP MM QUERIDA 1946-09-19 00:00:00 TS 11.4000 158.200 main 1774 1774 O________OOO__ jtwc_wp WP121946 11.4000 158.200 65 1 11.4000 158.200 TC 65 11.4000 158.200 3 65 11.4000 158.200 65 983 360 7 306
1946261N11161 1946 56 WP MM QUERIDA 1946-09-19 03:00:00 TS 11.6711 157.901 main 1789 1785 P________PPP__ WP121946 11.6998 157.903 72 1 11.6998 157.903 TC 72 11.5850 157.895 3 68 11.6998 157.903 72 981 330 9 309
1946261N11161 1946 56 WP MM QUERIDA 1946-09-19 06:00:00 TS 11.9475 157.503 main 1791 1788 O________OPO__ jtwc_wp WP121946 12.0000 157.500 80 1 12.0000 157.500 TC 80 11.7898 157.511 3 72 12.0000 157.500 80 979 300 9 296
1946261N11161 1946 56 WP MM QUERIDA 1946-09-19 09:00:00 TS 12.0853 157.048 main 1790 1776 P________PPP__ WP121946 12.1138 157.064 80 1 12.1138 157.064 TC 80 11.9998 156.998 3 76 12.1138 157.064 80 977 270 12 282
1946261N11161 1946 56 WP MM QUERIDA 1946-09-19 12:00:00 TS 12.2000 156.300 main 1773 1749 O________OOO__ jtwc_wp WP121946 12.2000 156.300 80 1 12.2000 156.300 TC 80 12.2000 156.300 4 80 12.2000 156.300 80 975 240 20 278
1946261N11161 1946 56 WP MM QUERIDA 1946-09-19 15:00:00 TS 12.3839 155.003 main 1751 1732 P________PPP__ WP121946 12.4022 154.881 85 2 12.4022 154.881 TC 85 12.3290 155.372 4 82 12.4022 154.881 85 973 270 27 278
1946261N11161 1946 56 WP MM QUERIDA 1946-09-19 18:00:00 TS 12.5622 153.616 main 1740 1728 O________OPO__ jtwc_wp WP121946 12.6000 153.400 90 2 12.6000 153.400 TC 90 12.4490 154.264 4 85 12.6000 153.400 90 972 300 23 277
1946261N11161 1946 56 WP MM QUERIDA 1946-09-19 21:00:00 TS 12.6721 152.684 main 1736 1731 P________PPP__ WP121946 12.6980 152.562 90 2 12.6980 152.562 TC 90 12.5942 153.049 4 87 12.6980 152.562 90 970 330 18 278
1946261N11161 1946 56 WP MM QUERIDA 1946-09-20 00:00:00 TS 12.8000 151.800 main 1738 1722 O________OOO__ jtwc_wp WP121946 12.8000 151.800 90 2 12.8000 151.800 TC 90 12.8000 151.800 4 90 12.8000 151.800 90 969 360 20 279
1946261N11161 1946 56 WP MM QUERIDA 1946-09-20 03:00:00 TS 12.9832 150.641 main 1728 1721 P________PPP__ WP121946 12.9327 150.659 95 2 12.9327 150.659 TC 95 13.1346 150.587 4 92 12.9327 150.659 95 967 360 24 282
1946261N11161 1946 56 WP MM QUERIDA 1946-09-20 06:00:00 TS 13.2819 149.389 main 1739 1738 O________OPO__ jtwc_wp WP121946 13.2000 149.400 100 3 13.2000 149.400 TC 100 13.5277 149.358 4 95 13.2000 149.400 100 966 360 26 288
1946261N11161 1946 56 WP MM QUERIDA 1946-09-20 09:00:00 TS 13.7842 148.154 main 1783 1782 P________PPP__ WP121946 13.7350 148.156 100 3 13.7350 148.156 TC 100 13.9317 148.149 4 97 13.7350 148.156 100 964 360 25 294
1946261N11161 1946 56 WP MM QUERIDA 1946-09-20 12:00:00 TS 14.3000 147.000 main 1837 1837 O________OOO__ jtwc_wp WP121946 14.3000 147.000 100 3 14.3000 147.000 TC 100 14.3000 147.000 4 100 14.3000 147.000 100 963 360 22 293
1946261N11161 1946 56 WP MM QUERIDA 1946-09-20 15:00:00 TS 14.6388 146.037 main 1872 1872 P________PPP__ WP121946 14.6588 146.077 100 3 14.6588 146.077 TC 100 14.5787 145.919 4 101 14.6588 146.077 100 961 360 19 288
1946261N11161 1946 56 WP MM QUERIDA 1946-09-20 18:00:00 TS 14.8789 145.127 main 1911 1911 O________OPO__ jtwc_wp WP121946 14.9000 145.200 100 3 14.9000 145.200 TC 100 14.8156 144.907 4 102 14.9000 145.200 100 959 360 19 283
1946261N11161 1946 56 WP MM QUERIDA 1946-09-20 21:00:00 TS 15.0653 144.081 main 1946 1931 P________PPP__ WP121946 15.0804 144.120 102 3 15.0804 144.120 TC 102 15.0198 143.966 4 103 15.0804 144.120 102 957 360 20 279
1946261N11161 1946 56 WP MM QUERIDA 1946-09-21 00:00:00 TS 15.2000 143.100 main 1931 1858 O________OOO__ jtwc_wp WP121946 15.2000 143.100 105 3 15.2000 143.100 TC 105 15.2000 143.100 4 105 15.2000 143.100 105 956 360 17 278
1946261N11161 1946 56 WP MM QUERIDA 1946-09-21 03:00:00 TS 15.3071 142.339 main 1847 1786 P________PPP__ WP121946 15.2916 142.355 105 3 15.2916 142.355 TC 105 15.3534 142.294 4 106 15.2916 142.355 105 954 360 14 279
1946261N11161 1946 56 WP MM QUERIDA 1946-09-21 06:00:00 TS 15.4225 141.665 main 1786 1716 O________OPO__ jtwc_wp WP121946 15.4000 141.700 105 3 15.4000 141.700 TC 105 15.4902 141.558 4 107 15.4000 141.700 105 953 360 14 282
1946261N11161 1946 56 WP MM QUERIDA 1946-09-21 09:00:00 TS 15.6024 140.919 main 1705 1636 P________PPP__ WP121946 15.5925 140.935 107 3 15.5925 140.935 TC 107 15.6319 140.869 4 108 15.5925 140.935 107 951 390 15 285
1946261N11161 1946 56 WP MM QUERIDA 1946-09-21 12:00:00 TS 15.8000 140.200 main 1636 1576 O________OOO__ jtwc_wp WP121946 15.8000 140.200 110 3 15.8000 140.200 TC 110 15.8000 140.200 4 110 15.8000 140.200 110 950 420 13 285
1946261N11161 1946 56 WP MM QUERIDA 1946-09-21 15:00:00 TS 15.9545 139.571 main 1579 1519 P________PPP__ WP121946 15.9269 139.599 110 3 15.9269 139.599 TC 110 16.0371 139.487 4 111 15.9269 139.599 110 949 450 13 286
1946261N11161 1946 56 WP MM QUERIDA 1946-09-21 18:00:00 TS 16.1499 138.948 main 1509 1457 O________OPO__ jtwc_wp WP121946 16.1000 139.000 110 3 16.1000 139.000 TC 110 16.2996 138.791 4 112 16.1000 139.000 110 949 480 14 292
1946261N11161 1946 56 WP MM QUERIDA 1946-09-21 21:00:00 TS 16.4838 138.219 main 1450 1390 P________PPP__ WP121946 16.4577 138.251 112 3 16.4577 138.251 TC 112 16.5623 138.124 4 113 16.4577 138.251 112 948 510 15 295
1946261N11161 1946 56 WP MM QUERIDA 1946-09-22 00:00:00 TS 16.8000 137.500 main 1390 1335 O________OOO__ jtwc_wp WP121946 16.8000 137.500 115 4 16.8000 137.500 TC 115 16.8000 137.500 4 115 16.8000 137.500 115 948 540 14 289
1946261N11161 1946 56 WP MM QUERIDA 1946-09-22 03:00:00 TS 16.9330 136.877 main 1335 1290 P________PPP__ WP121946 16.9223 136.854 115 4 16.9223 136.854 TC 115 16.9653 136.943 4 115 16.9223 136.854 115 947 540 11 281
1946261N11161 1946 56 WP MM QUERIDA 1946-09-22 06:00:00 TS 17.0265 136.331 main 1280 1250 O________OPO__ jtwc_wp WP121946 17.0000 136.300 115 4 17.0000 136.300 TC 115 17.1058 136.426 4 115 17.0000 136.300 115 947 540 10 285
1946261N11161 1946 56 WP MM QUERIDA 1946-09-22 09:00:00 TS 17.1880 135.873 main 1250 1213 P________PPP__ WP121946 17.1695 135.857 115 4 17.1695 135.857 TC 115 17.2435 135.921 4 115 17.1695 135.857 115 946 570 10 293
1946261N11161 1946 56 WP MM QUERIDA 1946-09-22 12:00:00 TS 17.4000 135.400 main 1213 1173 O________OOO__ jtwc_wp WP121946 17.4000 135.400 115 4 17.4000 135.400 TC 115 17.4000 135.400 4 115 17.4000 135.400 115 946 600 12 295
1946261N11161 1946 56 WP MM QUERIDA 1946-09-22 15:00:00 TS 17.6806 134.777 main 1173 1131 P________PPP__ WP121946 17.7077 134.765 115 4 17.7077 134.765 TC 115 17.5993 134.813 4 115 17.7077 134.765 115 945 570 13 295
1946261N11161 1946 56 WP MM QUERIDA 1946-09-22 18:00:00 TS 17.9550 134.127 main 1128 1089 O________OPO__ jtwc_wp WP121946 18.0000 134.100 115 4 18.0000 134.100 TC 115 17.8199 134.207 4 115 18.0000 134.100 115 944 540 13 291
1946261N11161 1946 56 WP MM QUERIDA 1946-09-22 21:00:00 TS 18.1262 133.550 main 1089 1042 P________PPP__ WP121946 18.1497 133.534 115 4 18.1497 133.534 TC 115 18.0555 133.598 4 115 18.1497 133.534 115 943 510 11 288
1946261N11161 1946 56 WP MM QUERIDA 1946-09-23 00:00:00 TS 18.3000 133.000 main 1042 1006 O________OOO__ jtwc_wp WP121946 18.3000 133.000 115 4 18.3000 133.000 TC 115 18.3000 133.000 4 115 18.3000 133.000 115 942 480 11 294
1946261N11161 1946 56 WP MM QUERIDA 1946-09-23 03:00:00 TS 18.5849 132.445 main 1002 976 P________PPP__ WP121946 18.5923 132.450 115 4 18.5923 132.450 TC 115 18.5626 132.428 4 116 18.5923 132.450 115 941 480 12 299
1946261N11161 1946 56 WP MM QUERIDA 1946-09-23 06:00:00 TS 18.8823 131.893 main 976 946 O________OPO__ jtwc_wp WP121946 18.9000 131.900 115 4 18.9000 131.900 TC 115 18.8293 131.870 4 117 18.9000 131.900 115 940 480 12 297
1946261N11161 1946 56 WP MM QUERIDA 1946-09-23 09:00:00 TS 19.1178 131.339 main 937 900 P________PPP__ WP121946 19.1299 131.342 117 4 19.1299 131.342 TC 117 19.0814 131.328 4 118 19.1299 131.342 117 939 450 11 292
1946261N11161 1946 56 WP MM QUERIDA 1946-09-23 12:00:00 TS 19.3000 130.800 main 900 848 O________OOO__ jtwc_wp WP121946 19.3000 130.800 120 4 19.3000 130.800 TC 120 19.3000 130.800 4 120 19.3000 130.800 120 938 420 10 287
1946261N11161 1946 56 WP MM QUERIDA 1946-09-23 15:00:00 TS 19.4143 130.297 main 848 798 P________PPP__ WP121946 19.4073 130.292 120 4 19.4073 130.292 TC 120 19.4353 130.312 4 120 19.4073 130.292 120 937 420 10 283
1946261N11161 1946 56 WP MM QUERIDA 1946-09-23 18:00:00 TS 19.5102 129.809 main 798 748 O________OPO__ jtwc_wp WP121946 19.5000 129.800 120 4 19.5000 129.800 TC 120 19.5407 129.835 4 120 19.5000 129.800 120 937 420 10 284
1946261N11161 1946 56 WP MM QUERIDA 1946-09-23 21:00:00 TS 19.6444 129.316 main 748 700 P________PPP__ WP121946 19.6423 129.307 120 4 19.6423 129.307 TC 120 19.6508 129.340 4 120 19.6423 129.307 120 937 450 10 287
1946261N11161 1946 56 WP MM QUERIDA 1946-09-24 00:00:00 TS 19.8000 128.800 main 700 652 O________OOO__ jtwc_wp WP121946 19.8000 128.800 120 4 19.8000 128.800 TC 120 19.8000 128.800 4 120 19.8000 128.800 120 937 480 10 287
1946261N11161 1946 56 WP MM QUERIDA 1946-09-24 03:00:00 TS 19.9441 128.262 main 652 597 P________PPP__ WP121946 19.9120 128.294 115 4 19.9120 128.294 TC 115 20.0404 128.164 4 113 19.9120 128.294 115 942 480 11 288
1946261N11161 1946 56 WP MM QUERIDA 1946-09-24 06:00:00 TS 20.1551 127.645 main 591 536 O________OPO__ jtwc_wp WP121946 20.1000 127.700 110 3 20.1000 127.700 TC 110 20.3206 127.481 4 107 20.1000 127.700 110 948 480 14 294
1946261N11161 1946 56 WP MM QUERIDA 1946-09-24 09:00:00 TS 20.5293 126.866 main 536 486 P________PPP__ WP121946 20.5006 126.894 102 3 20.5006 126.894 TC 102 20.6154 126.783 4 101 20.5006 126.894 102 952 480 16 297
1946261N11161 1946 56 WP MM QUERIDA 1946-09-24 12:00:00 TS 20.9000 126.100 main 486 458 O________OOO__ jtwc_wp WP121946 20.9000 126.100 95 2 20.9000 126.100 TC 95 20.9000 126.100 4 95 20.9000 126.100 95 957 480 13 295
1946261N11161 1946 56 WP MM QUERIDA 1946-09-24 15:00:00 TS 21.0874 125.568 main 458 428 P________PPP__ WP121946 21.0641 125.584 90 2 21.0641 125.584 TC 90 21.1574 125.522 4 92 21.0641 125.584 90 959 480 10 290
1946261N11161 1946 56 WP MM QUERIDA 1946-09-24 18:00:00 TS 21.2498 125.065 main 428 365 O________OPO__ jtwc_wp WP121946 21.2000 125.100 85 2 21.2000 125.100 TC 85 21.3991 124.959 4 90 21.2000 125.100 85 961 480 11 293
1946261N11161 1946 56 WP MM QUERIDA 1946-09-24 21:00:00 TS 21.5287 124.442 main 356 277 P________PPP__ WP121946 21.4995 124.468 85 2 21.4995 124.468 TC 85 21.6164 124.366 4 87 21.4995 124.468 85 963 510 14 293
1946261N11161 1946 56 WP MM QUERIDA 1946-09-25 00:00:00 TS 21.8000 123.700 main 277 197 O________OOO__ jtwc_wp WP121946 21.8000 123.700 85 2 21.8000 123.700 TC 85 21.8000 123.700 4 85 21.8000 123.700 85 965 540 16 286
1946261N11161 1946 56 WP MM QUERIDA 1946-09-25 03:00:00 TS 21.9767 122.806 main 189 102 P________PPP__ WP121946 21.9879 122.765 85 2 21.9879 122.765 TC 85 21.9430 122.928 4 85 21.9879 122.765 85 967 510 17 280
1946261N11161 1946 56 WP MM QUERIDA 1946-09-25 06:00:00 TS 22.0902 121.854 main 102 10 O________OPO__ jtwc_wp WP121946 22.1000 121.800 85 2 22.1000 121.800 TC 85 22.0511 122.068 4 85 22.1000 121.800 85 969 480 17 275
1946261N11161 1946 56 WP MM QUERIDA 1946-09-25 09:00:00 TS 22.1216 120.976 main 10 0 P________PPP__ WP121946 22.1197 120.947 85 2 22.1197 120.947 TC 85 22.1335 121.149 4 85 22.1197 120.947 85 971 450 15 274
1946261N11161 1946 56 WP MM QUERIDA 1946-09-25 12:00:00 TS 22.2000 120.200 main 35 35 O________OOO__ jtwc_wp WP121946 22.2000 120.200 85 2 22.2000 120.200 TC 85 22.2000 120.200 4 85 22.2000 120.200 85 973 420 14 283
1946261N11161 1946 56 WP MM QUERIDA 1946-09-25 15:00:00 TS 22.4471 119.469 main 82 82 P________P_P__ WP121946 22.4376 119.444 75 1 22.4376 119.444 TC 75 4 22.4853 119.569 75 974 390 13 302
1946261N11161 1946 56 WP MM QUERIDA 1946-09-25 18:00:00 TS 22.9000 119.000 main 114 108 O________O_O__ jtwc_wp WP121946 22.9000 119.000 65 1 22.9000 119.000 TC 65 4 22.9000 119.000 65 976 360 12 338
1946261N11161 1946 56 WP MM QUERIDA 1946-09-25 21:00:00 TS 23.6006 118.975 main 108 67 P________P____ WP121946 23.6006 118.975 62 0 23.6006 118.975 TC 62 4 17 16
1946261N11161 1946 56 WP MM QUERIDA 1946-09-26 00:00:00 TS 24.5000 119.500 main 73 52 O________O____ jtwc_wp WP121946 24.5000 119.500 60 0 24.5000 119.500 TC 60 25 40
1946261N11161 1946 56 WP MM QUERIDA 1946-09-26 03:00:00 TS 25.5115 120.707 main 63 63 P________P____ WP121946 25.5115 120.707 57 0 25.5115 120.707 TC 57 30 48
1946261N11161 1946 56 WP MM QUERIDA 1946-09-26 06:00:00 TS 26.5000 122.000 main 150 148 O________O____ jtwc_wp WP121946 26.5000 122.000 55 0 26.5000 122.000 TC 55 25 43
1946261N11161 1946 56 WP MM QUERIDA 1946-09-26 09:00:00 TS 27.3224 122.579 main 148 130 P________P____ WP121946 27.3224 122.579 52 0 27.3224 122.579 TC 52 17 31
1946261N11161 1946 56 WP MM QUERIDA 1946-09-26 12:00:00 TS 28.0000 123.000 main 141 141 O________O____ jtwc_wp WP121946 28.0000 123.000 50 0 28.0000 123.000 TC 50 16 39
1946261N11161 1946 56 WP MM QUERIDA 1946-09-26 15:00:00 TS 28.5376 123.713 main 182 182 P________P____ WP121946 28.5376 123.713 45 0 28.5376 123.713 TC 45 17 53
1946261N11161 1946 56 WP MM QUERIDA 1946-09-26 18:00:00 TS 29.0000 124.500 main 243 243 O________O____ jtwc_wp WP121946 29.0000 124.500 40 0 29.0000 124.500 TC 40 17 55
1946261N11161 1946 56 WP MM QUERIDA 1946-09-26 21:00:00 TS 29.4880 125.261 main 321 321 P________P____ WP121946 29.4880 125.261 35 0 29.4880 125.261 TC 35 16 53
1946261N11161 1946 56 WP MM QUERIDA 1946-09-27 00:00:00 TS 30.0000 126.000 main 358 O________O____ jtwc_wp WP121946 30.0000 126.000 30 -1 30.0000 126.000 TC 30 16 51

Digital Typhoon Data and Search

About IBTrACS Database

This database is a web-friendly format of International Best Track Archive for Climate Stewardship (IBTrACS), a global best track data archive curated by NOAA dating back to 1842.

Updated: 2021-10-08